createdAt,value
2018-12-04T00:01:08.553Z,8.30
2018-12-04T00:03:39.658Z,8.34
2018-12-04T00:06:09.007Z,8.31
2018-12-04T00:08:40.069Z,8.30
2018-12-04T00:11:09.458Z,8.57
2018-12-04T00:13:38.542Z,8.54
2018-12-04T00:16:07.663Z,8.66
2018-12-04T00:18:37.123Z,8.66
2018-12-04T00:21:06.234Z,8.70
2018-12-04T00:23:37.893Z,8.71
2018-12-04T00:26:14.006Z,8.65
2018-12-04T00:28:43.354Z,8.67
2018-12-04T00:31:14.419Z,8.59
2018-12-04T00:33:44.401Z,8.58
2018-12-04T00:36:13.506Z,8.58
2018-12-04T00:38:42.581Z,8.47
2018-12-04T00:41:13.563Z,8.45
2018-12-04T00:43:42.626Z,8.48
2018-12-04T00:46:11.830Z,8.40
2018-12-04T00:48:41.413Z,8.44
2018-12-04T00:51:10.443Z,8.44
2018-12-04T00:53:39.512Z,8.21
2018-12-04T00:56:09.964Z,8.20
2018-12-04T00:58:39.075Z,8.24
2018-12-04T01:01:08.234Z,8.08
2018-12-04T01:03:37.653Z,8.11
2018-12-04T01:06:06.739Z,8.13
2018-12-04T01:08:35.929Z,8.18
2018-12-04T01:11:05.210Z,8.22
2018-12-04T01:13:34.330Z,8.21
2018-12-04T01:16:03.646Z,8.03
2018-12-04T01:18:32.751Z,8.05
2018-12-04T01:21:03.541Z,7.94
2018-12-04T01:23:35.399Z,7.93
2018-12-04T01:26:04.410Z,7.96
2018-12-04T01:28:33.509Z,7.96
2018-12-04T01:31:03.022Z,7.87
2018-12-04T01:33:33.868Z,7.92
2018-12-04T01:36:02.905Z,7.90
2018-12-04T01:38:31.893Z,7.88
2018-12-04T01:41:01.444Z,7.88
2018-12-04T01:43:30.870Z,7.80
2018-12-04T01:46:03.009Z,7.74
2018-12-04T01:48:32.417Z,7.66
2018-12-04T01:51:01.496Z,7.61
2018-12-04T01:53:30.593Z,7.52
2018-12-04T01:55:59.833Z,7.44
2018-12-04T01:58:28.907Z,7.42
2018-12-04T02:00:57.986Z,6.82
2018-12-04T02:03:27.349Z,7.34
2018-12-04T02:05:56.394Z,7.28
2018-12-04T02:08:25.487Z,6.67
2018-12-04T02:10:54.894Z,7.30
2018-12-04T02:13:23.954Z,7.27
2018-12-04T02:15:52.985Z,7.27
2018-12-04T02:18:28.114Z,7.16
2018-12-04T02:20:57.310Z,7.09
2018-12-04T02:23:26.478Z,7.09
2018-12-04T02:25:55.918Z,7.07
2018-12-04T02:28:29.145Z,6.98
2018-12-04T02:31:04.682Z,6.99
2018-12-04T02:33:33.733Z,6.95
2018-12-04T02:36:02.849Z,6.93
2018-12-04T02:38:31.930Z,6.87
2018-12-04T02:41:01.073Z,6.82
2018-12-04T02:43:30.070Z,6.80
2018-12-04T02:46:06.087Z,6.79
2018-12-04T02:48:35.300Z,6.76
2018-12-04T02:51:08.376Z,6.74
2018-12-04T02:53:37.474Z,6.76
2018-12-04T02:56:06.719Z,6.80
2018-12-04T02:58:36.165Z,6.79
2018-12-04T03:01:08.034Z,6.70
2018-12-04T03:03:37.962Z,6.68
2018-12-04T03:06:07.033Z,6.67
2018-12-04T03:08:36.117Z,6.57
2018-12-04T03:11:05.449Z,6.54
2018-12-04T03:13:34.523Z,6.35
2018-12-04T03:19:06.610Z,6.20
2018-12-04T03:21:36.193Z,6.24
2018-12-04T03:24:11.566Z,6.13
2018-12-04T03:26:40.747Z,6.19
2018-12-04T03:29:21.639Z,6.24
2018-12-04T03:31:50.715Z,6.27
2018-12-04T03:34:19.801Z,6.29
2018-12-04T03:36:49.323Z,6.32
2018-12-04T03:39:18.363Z,6.25
2018-12-04T03:41:48.468Z,6.29
2018-12-04T03:44:17.551Z,6.27
2018-12-04T03:46:46.603Z,6.23
2018-12-04T03:49:15.614Z,6.30
2018-12-04T03:51:48.555Z,6.30
2018-12-04T03:54:17.574Z,6.27
2018-12-04T03:56:46.569Z,6.30
2018-12-04T03:59:16.137Z,6.28
2018-12-04T04:01:45.210Z,6.33
2018-12-04T04:04:14.282Z,6.30
2018-12-04T04:06:43.790Z,6.30
2018-12-04T04:09:12.906Z,6.31
2018-12-04T04:11:41.958Z,6.36
2018-12-04T04:14:11.459Z,6.42
2018-12-04T04:16:43.651Z,6.47
2018-12-04T04:19:13.281Z,6.46
2018-12-04T04:21:49.982Z,6.44
2018-12-04T04:24:19.442Z,6.52
2018-12-04T04:26:48.513Z,6.57
2018-12-04T04:29:17.622Z,6.55
2018-12-04T04:31:46.936Z,6.56
2018-12-04T04:34:16.025Z,6.57
2018-12-04T04:36:45.043Z,6.59
2018-12-04T04:39:19.154Z,6.54
2018-12-04T04:41:56.918Z,6.53
2018-12-04T04:44:26.417Z,6.50
2018-12-04T04:46:55.523Z,6.49
2018-12-04T04:49:24.530Z,6.53
2018-12-04T04:51:53.929Z,6.61
2018-12-04T04:54:25.092Z,6.67
2018-12-04T04:56:54.569Z,6.64
2018-12-04T04:59:23.577Z,6.63
2018-12-04T05:01:52.651Z,6.72
2018-12-04T05:04:22.138Z,6.73
2018-12-04T05:06:51.250Z,6.71
2018-12-04T05:09:20.465Z,6.83
2018-12-04T05:11:50.268Z,6.84
2018-12-04T05:14:19.358Z,6.89
2018-12-04T05:16:48.466Z,6.95
2018-12-04T05:19:18.058Z,7.02
2018-12-04T05:21:47.338Z,6.98
2018-12-04T05:24:16.572Z,6.94
2018-12-04T05:26:46.038Z,6.96
2018-12-04T05:29:15.223Z,6.93
2018-12-04T05:31:44.355Z,6.88
2018-12-04T05:34:13.730Z,6.91
2018-12-04T05:36:45.327Z,6.70
2018-12-04T05:39:20.454Z,6.74
2018-12-04T05:41:49.534Z,6.13
2018-12-04T05:44:18.633Z,6.68
2018-12-04T05:46:51.884Z,6.61
2018-12-04T05:49:21.032Z,6.69
2018-12-04T05:51:50.118Z,6.60
2018-12-04T05:54:20.350Z,6.65
2018-12-04T05:56:49.430Z,6.62
2018-12-04T05:59:18.536Z,6.58
2018-12-04T06:01:48.631Z,6.59
2018-12-04T06:04:22.225Z,6.52
2018-12-04T06:06:51.381Z,6.59
2018-12-04T06:09:20.622Z,6.59
2018-12-04T06:15:00.899Z,6.57
2018-12-04T06:17:36.036Z,6.61
2018-12-04T06:20:05.905Z,6.60
2018-12-04T06:22:34.967Z,6.57
2018-12-04T06:25:04.194Z,6.56
2018-12-04T06:27:37.895Z,6.56
2018-12-04T06:30:07.842Z,6.61
2018-12-04T06:32:36.887Z,6.47
2018-12-04T06:35:06.517Z,6.54
2018-12-04T06:37:35.775Z,6.53
2018-12-04T06:40:05.045Z,6.51
2018-12-04T06:42:34.406Z,6.48
2018-12-04T06:45:03.909Z,6.43
2018-12-04T06:47:33.007Z,6.52
2018-12-04T06:50:02.121Z,6.52
2018-12-04T06:52:31.113Z,6.57
2018-12-04T06:55:00.118Z,6.61
2018-12-04T06:57:29.478Z,6.63
2018-12-04T06:59:58.658Z,6.68
2018-12-04T07:02:27.757Z,6.76
2018-12-04T07:04:57.174Z,6.71
2018-12-04T07:07:26.245Z,6.77
2018-12-04T07:09:55.356Z,6.79
2018-12-04T07:12:24.476Z,6.85
2018-12-04T07:14:53.534Z,6.79
2018-12-04T07:17:22.634Z,6.91
2018-12-04T07:19:51.949Z,6.93
2018-12-04T07:22:21.157Z,6.94
2018-12-04T07:24:50.150Z,6.96
2018-12-04T07:27:19.536Z,6.99
2018-12-04T07:29:48.625Z,7.02
2018-12-04T07:32:17.790Z,6.95
2018-12-04T07:34:47.229Z,6.90
2018-12-04T07:37:16.306Z,6.87
2018-12-04T07:39:45.417Z,6.89
2018-12-04T07:42:14.526Z,6.76
2018-12-04T07:44:43.639Z,6.88
2018-12-04T07:47:12.633Z,6.90
2018-12-04T07:49:41.727Z,6.83
2018-12-04T07:52:10.794Z,6.77
2018-12-04T07:54:39.882Z,6.80
2018-12-04T07:57:09.302Z,6.78
2018-12-04T07:59:38.297Z,6.81
2018-12-04T08:02:07.373Z,6.81
2018-12-04T08:04:36.762Z,6.89
2018-12-04T08:07:05.876Z,6.84
2018-12-04T08:09:34.870Z,6.92
2018-12-04T08:12:04.379Z,6.92
2018-12-04T08:14:33.438Z,6.90
2018-12-04T08:17:02.659Z,6.91
2018-12-04T08:19:31.781Z,6.81
2018-12-04T08:22:00.860Z,6.97
2018-12-04T08:24:29.926Z,7.08
2018-12-04T08:26:59.258Z,6.98
2018-12-04T08:29:28.276Z,6.94
2018-12-04T08:31:57.322Z,6.98
2018-12-04T08:34:26.350Z,7.00
2018-12-04T08:36:55.354Z,6.99
2018-12-04T08:39:24.418Z,7.05
2018-12-04T08:41:54.129Z,6.98
2018-12-04T08:44:23.290Z,6.97
2018-12-04T08:46:52.329Z,6.97
2018-12-04T08:49:21.367Z,6.94
2018-12-04T08:51:50.917Z,6.95
2018-12-04T08:54:19.910Z,6.96
2018-12-04T08:56:49.390Z,7.06
2018-12-04T08:59:18.593Z,7.06
2018-12-04T09:01:47.601Z,7.12
2018-12-04T09:04:16.718Z,7.18
2018-12-04T09:06:45.849Z,7.08
2018-12-04T09:09:15.074Z,7.08
2018-12-04T09:11:44.093Z,7.06
2018-12-04T09:14:13.194Z,7.11
2018-12-04T09:16:42.202Z,7.15
2018-12-04T09:19:11.237Z,7.24
2018-12-04T09:21:40.647Z,7.23
2018-12-04T09:24:09.871Z,7.22
2018-12-04T09:26:39.036Z,7.20
2018-12-04T09:29:08.307Z,7.23
2018-12-04T09:31:37.396Z,7.20
2018-12-04T09:34:07.499Z,7.18
2018-12-04T09:36:36.578Z,7.15
2018-12-04T09:39:07.942Z,7.25
2018-12-04T09:41:37.641Z,7.26
2018-12-04T09:44:06.725Z,7.28
2018-12-04T09:46:35.958Z,7.38
2018-12-04T09:49:05.837Z,7.32
2018-12-04T09:51:34.934Z,7.42
2018-12-04T09:54:04.176Z,7.42
2018-12-04T09:56:33.222Z,7.54
2018-12-04T09:59:02.322Z,7.41
2018-12-04T10:01:31.454Z,7.40
2018-12-04T10:04:00.506Z,7.46
2018-12-04T10:06:29.626Z,7.39
2018-12-04T10:08:59.023Z,7.41
2018-12-04T10:11:28.875Z,7.33
2018-12-04T10:13:58.199Z,7.41
2018-12-04T10:16:27.254Z,7.43
2018-12-04T10:18:56.310Z,7.44
2018-12-04T10:21:25.549Z,7.44
2018-12-04T10:23:54.929Z,7.40
2018-12-04T10:26:23.922Z,7.38
2018-12-04T10:28:52.985Z,7.30
2018-12-04T10:31:22.045Z,7.32
2018-12-04T10:33:51.080Z,7.33
2018-12-04T10:36:20.173Z,7.48
2018-12-04T10:38:49.490Z,7.54
2018-12-04T10:41:18.514Z,7.59
2018-12-04T10:43:47.555Z,7.51
2018-12-04T10:46:16.998Z,7.47
2018-12-04T10:48:46.002Z,7.52
2018-12-04T10:51:15.015Z,7.50
2018-12-04T10:53:44.082Z,7.45
2018-12-04T10:56:13.165Z,7.46
2018-12-04T10:58:42.167Z,7.41
2018-12-04T11:01:16.332Z,7.46
2018-12-04T11:03:45.349Z,7.56
2018-12-04T11:06:14.645Z,7.53
2018-12-04T11:08:43.957Z,7.45
2018-12-04T11:11:13.042Z,7.48
2018-12-04T11:13:42.139Z,7.47
2018-12-04T11:16:11.387Z,7.40
2018-12-04T11:18:40.759Z,7.29
2018-12-04T11:21:09.930Z,7.28
2018-12-04T11:23:40.369Z,7.27
2018-12-04T11:26:09.457Z,6.45
2018-12-04T11:28:38.795Z,7.28
2018-12-04T11:31:07.806Z,7.13
2018-12-04T11:33:36.831Z,7.09
2018-12-04T11:36:06.050Z,7.12
2018-12-04T11:38:35.333Z,7.19
2018-12-04T11:41:11.221Z,7.11
2018-12-04T11:43:40.621Z,7.14
2018-12-04T11:46:09.637Z,7.16
2018-12-04T11:48:38.826Z,7.12
2018-12-04T11:51:08.378Z,7.10
2018-12-04T11:53:37.390Z,7.20
2018-12-04T11:56:06.475Z,7.19
2018-12-04T11:58:35.898Z,7.27
2018-12-04T12:01:05.834Z,7.21
2018-12-04T12:03:34.897Z,7.22
2018-12-04T12:06:04.026Z,7.20
2018-12-04T12:08:35.017Z,7.22
2018-12-04T12:11:04.071Z,7.29
2018-12-04T12:13:33.110Z,7.19
2018-12-04T12:16:02.181Z,7.30
2018-12-04T12:18:31.225Z,7.34
2018-12-04T12:21:00.310Z,7.32
2018-12-04T12:23:29.599Z,7.31
2018-12-04T12:25:58.841Z,7.19
2018-12-04T12:28:27.973Z,7.07
2018-12-04T12:30:56.970Z,7.03
2018-12-04T12:33:26.810Z,6.89
2018-12-04T12:35:55.813Z,6.89
2018-12-04T12:38:24.820Z,6.76
2018-12-04T12:40:54.202Z,6.80
2018-12-04T12:43:24.347Z,6.80
2018-12-04T12:45:53.490Z,6.77
2018-12-04T12:48:22.919Z,6.74
2018-12-04T12:50:51.911Z,6.57
2018-12-04T12:53:20.994Z,6.66
2018-12-04T12:55:50.112Z,6.65
2018-12-04T12:58:19.194Z,6.62
2018-12-04T13:00:48.271Z,6.60
2018-12-04T13:03:18.515Z,6.64
2018-12-04T13:05:48.121Z,6.59
2018-12-04T13:08:17.617Z,6.56
2018-12-04T13:10:47.030Z,6.48
2018-12-04T13:13:16.039Z,6.50
2018-12-04T13:15:45.106Z,6.37
2018-12-04T13:18:14.525Z,6.38
2018-12-04T13:20:43.821Z,5.80
2018-12-04T13:23:13.481Z,6.36
2018-12-04T13:25:42.543Z,6.23
2018-12-04T13:28:11.599Z,6.28
2018-12-04T13:30:41.546Z,6.27
2018-12-04T13:33:10.575Z,6.24
2018-12-04T13:35:39.913Z,6.09
2018-12-04T13:38:08.968Z,6.12
2018-12-04T13:40:38.349Z,5.97
2018-12-04T13:43:07.478Z,5.87
2018-12-04T13:45:36.513Z,5.98
2018-12-04T13:48:05.697Z,5.86
2018-12-04T13:50:34.918Z,5.82
2018-12-04T13:53:04.201Z,5.87
2018-12-04T13:55:33.337Z,5.90
2018-12-04T13:58:02.501Z,5.75
2018-12-04T14:00:32.096Z,5.84
2018-12-04T14:03:01.355Z,5.82
2018-12-04T14:05:30.399Z,5.86
2018-12-04T14:07:59.484Z,5.74
2018-12-04T14:10:28.905Z,5.73
2018-12-04T14:12:58.098Z,5.66
2018-12-04T14:15:27.289Z,5.65
2018-12-04T14:17:56.690Z,5.53
2018-12-04T14:20:25.915Z,5.60
2018-12-04T14:22:55.381Z,5.53
2018-12-04T14:25:24.605Z,5.51
2018-12-04T14:27:53.704Z,5.47
2018-12-04T14:30:22.885Z,5.46
2018-12-04T14:32:52.366Z,5.43
2018-12-04T14:35:21.505Z,5.35
2018-12-04T14:37:50.664Z,5.23
2018-12-04T14:40:19.893Z,5.28
2018-12-04T14:42:51.106Z,5.32
2018-12-04T14:45:20.256Z,5.28
2018-12-04T14:47:49.345Z,5.25
2018-12-04T14:50:19.354Z,5.29
2018-12-04T14:52:48.763Z,5.18
2018-12-04T14:55:17.870Z,5.14
2018-12-04T14:57:46.875Z,5.16
2018-12-04T15:00:17.355Z,5.19
2018-12-04T15:02:46.484Z,5.18
2018-12-04T15:05:16.696Z,5.20
2018-12-04T15:07:45.880Z,5.14
2018-12-04T15:10:15.084Z,5.09
2018-12-04T15:12:44.305Z,5.03
2018-12-04T15:15:13.733Z,4.99
2018-12-04T15:20:10.933Z,5.04
2018-12-04T15:22:40.410Z,4.94
2018-12-04T15:25:10.261Z,4.93
2018-12-04T15:27:39.286Z,4.79
2018-12-04T15:30:09.522Z,4.83
2018-12-04T15:32:38.654Z,4.81
2018-12-04T15:35:08.125Z,4.71
2018-12-04T15:37:37.324Z,4.75
2018-12-04T15:40:07.722Z,4.62
2018-12-04T15:42:36.849Z,4.68
2018-12-04T15:45:06.889Z,4.73
2018-12-04T15:47:36.079Z,4.72
2018-12-04T15:50:06.407Z,4.70
2018-12-04T15:52:35.523Z,4.63
2018-12-04T15:55:05.291Z,4.63
2018-12-04T15:57:35.361Z,4.55
2018-12-04T16:00:07.216Z,4.56
2018-12-04T16:02:36.816Z,4.49
2018-12-04T16:05:08.109Z,4.56
2018-12-04T16:07:37.770Z,4.55
2018-12-04T16:10:10.142Z,4.49
2018-12-04T16:12:40.170Z,4.46
2018-12-04T16:15:09.486Z,4.50
2018-12-04T16:17:38.619Z,4.47
2018-12-04T16:20:08.714Z,4.45
2018-12-04T16:22:38.806Z,4.44
2018-12-04T16:25:09.724Z,4.37
2018-12-04T16:27:38.829Z,4.41
2018-12-04T16:30:09.769Z,4.39
2018-12-04T16:32:38.827Z,4.41
2018-12-04T16:35:09.229Z,4.33
2018-12-04T16:37:38.801Z,4.43
2018-12-04T16:40:08.348Z,4.38
2018-12-04T16:42:37.619Z,4.27
2018-12-04T16:45:07.038Z,4.31
2018-12-04T16:47:36.286Z,4.36
2018-12-04T16:50:06.008Z,4.33
2018-12-04T16:52:35.385Z,4.25
2018-12-04T16:55:05.578Z,4.27
2018-12-04T16:57:34.642Z,4.17
2018-12-04T17:00:05.163Z,4.18
2018-12-04T17:02:35.070Z,4.21
2018-12-04T17:05:04.627Z,4.19
2018-12-04T17:07:34.391Z,4.26
2018-12-04T17:10:04.622Z,4.27
2018-12-04T17:12:33.721Z,4.18
2018-12-04T17:15:03.265Z,4.16
2018-12-04T17:17:33.135Z,4.13
2018-12-04T17:20:02.339Z,4.20
2018-12-04T17:22:31.362Z,4.14
2018-12-04T17:25:00.432Z,4.14
2018-12-04T17:27:29.514Z,4.16
2018-12-04T17:29:58.591Z,4.15
2018-12-04T17:32:29.435Z,4.21
2018-12-04T17:34:58.948Z,4.20
2018-12-04T17:37:28.130Z,4.28
2018-12-04T17:39:57.167Z,4.31
2018-12-04T17:42:26.225Z,4.32
2018-12-04T17:44:55.244Z,4.27
2018-12-04T17:47:24.330Z,4.24
2018-12-04T17:49:53.478Z,4.25
2018-12-04T17:52:22.586Z,4.32
2018-12-04T17:54:51.641Z,4.24
2018-12-04T17:57:20.662Z,4.14
2018-12-04T17:59:51.687Z,4.19
2018-12-04T18:02:22.762Z,4.16
2018-12-04T18:04:51.891Z,4.03
2018-12-04T18:07:23.022Z,4.13
2018-12-04T18:09:52.262Z,4.13
2018-12-04T18:12:21.278Z,4.02
2018-12-04T18:14:52.653Z,4.01
2018-12-04T18:17:21.750Z,3.99
2018-12-04T18:19:51.015Z,3.98
2018-12-04T18:22:20.654Z,3.89
2018-12-04T18:24:49.850Z,3.85
2018-12-04T18:27:19.866Z,3.88
2018-12-04T18:29:49.051Z,3.91
2018-12-04T18:32:18.189Z,3.93
2018-12-04T18:34:47.245Z,4.03
2018-12-04T18:37:17.138Z,4.01
2018-12-04T18:39:46.399Z,3.98
2018-12-04T18:42:15.474Z,3.96
2018-12-04T18:44:44.987Z,3.97
2018-12-04T18:47:14.078Z,4.03
2018-12-04T18:49:43.151Z,3.80
2018-12-04T18:52:16.193Z,3.99
2018-12-04T18:54:45.392Z,3.98
2018-12-04T18:57:14.594Z,3.97
2018-12-04T18:59:43.930Z,3.99
2018-12-04T19:02:13.578Z,3.94
2018-12-04T19:04:42.775Z,3.90
2018-12-04T19:07:11.878Z,3.90
2018-12-04T19:09:42.359Z,3.77
2018-12-04T19:12:11.932Z,3.91
2018-12-04T19:14:41.149Z,3.85
2018-12-04T19:17:11.814Z,3.83
2018-12-04T19:19:41.277Z,3.87
2018-12-04T19:22:10.650Z,3.90
2018-12-04T19:24:40.090Z,3.83
2018-12-04T19:27:09.478Z,3.82
2018-12-04T19:29:39.641Z,3.82
2018-12-04T19:32:09.638Z,3.83
2018-12-04T19:34:38.892Z,3.86
2018-12-04T19:37:08.284Z,3.88
2018-12-04T19:39:38.408Z,3.90
2018-12-04T19:42:07.836Z,3.89
2018-12-04T19:44:36.914Z,3.89
2018-12-04T19:47:07.031Z,3.86
2018-12-04T19:49:36.258Z,3.88
2018-12-04T19:52:05.988Z,3.93
2018-12-04T19:54:36.038Z,3.85
2018-12-04T19:57:05.265Z,3.78
2018-12-04T19:59:37.159Z,3.77
2018-12-04T20:02:06.320Z,3.71
2018-12-04T20:04:35.476Z,3.77
2018-12-04T20:07:05.660Z,3.76
2018-12-04T20:09:35.374Z,3.68
2018-12-04T20:12:05.799Z,3.61
2018-12-04T20:14:35.171Z,3.59
2018-12-04T20:17:04.298Z,3.59
2018-12-04T20:19:34.658Z,3.51
2018-12-04T20:22:04.044Z,3.45
2018-12-04T20:24:33.915Z,3.50
2018-12-04T20:27:03.221Z,3.48
2018-12-04T20:29:32.402Z,3.40
2018-12-04T20:32:01.608Z,3.43
2018-12-04T20:34:31.690Z,3.32
2018-12-04T20:37:01.226Z,3.32
2018-12-04T20:39:30.453Z,3.27
2018-12-04T20:41:59.686Z,3.27
2018-12-04T20:44:28.822Z,3.16
2018-12-04T20:46:57.992Z,3.19
2018-12-04T20:49:28.109Z,3.12
2018-12-04T20:51:57.222Z,3.18
2018-12-04T20:54:26.415Z,3.16
2018-12-04T20:56:55.661Z,3.21
2018-12-04T20:59:24.843Z,3.22
2018-12-04T21:01:54.108Z,3.28
2018-12-04T21:04:23.818Z,3.27
2018-12-04T21:06:53.099Z,3.26
2018-12-04T21:09:22.326Z,3.29
2018-12-04T21:11:51.676Z,3.30
2018-12-04T21:14:20.780Z,3.35
2018-12-04T21:16:49.999Z,3.39
2018-12-04T21:19:19.401Z,3.36
2018-12-04T21:21:48.581Z,3.36
2018-12-04T21:24:17.681Z,3.41
2018-12-04T21:26:47.343Z,3.41
2018-12-04T21:29:21.714Z,3.36
2018-12-04T21:31:56.178Z,3.40
2018-12-04T21:34:30.514Z,3.36
2018-12-04T21:38:06.806Z,3.38
2018-12-04T21:40:41.375Z,3.30
2018-12-04T21:43:15.713Z,3.26
2018-12-04T21:45:50.022Z,3.28
2018-12-04T21:48:21.560Z,3.39
2018-12-04T21:50:50.618Z,3.30
2018-12-04T21:53:19.708Z,3.34
2018-12-04T21:55:48.791Z,3.34
2018-12-04T21:58:17.911Z,3.29
2018-12-04T22:00:47.026Z,3.24
2018-12-04T22:03:16.127Z,3.20
2018-12-04T22:05:45.266Z,3.14
2018-12-04T22:08:14.270Z,3.17
2018-12-04T22:10:43.612Z,3.06
2018-12-04T22:13:12.798Z,3.00
2018-12-04T22:15:41.997Z,3.03
2018-12-04T22:18:11.824Z,2.96
2018-12-04T22:20:41.091Z,2.93
2018-12-04T22:23:10.108Z,2.99
2018-12-04T22:25:39.175Z,2.94
2018-12-04T22:28:08.276Z,2.93
2018-12-04T22:30:38.293Z,2.94
2018-12-04T22:33:07.398Z,3.03
2018-12-04T22:35:36.450Z,3.03
2018-12-04T22:38:05.478Z,3.10
2018-12-04T22:40:34.603Z,3.07
2018-12-04T22:43:03.670Z,3.02
2018-12-04T22:45:32.785Z,3.05
2018-12-04T22:48:01.831Z,3.10
2018-12-04T22:50:30.961Z,3.08
2018-12-04T22:53:00.042Z,3.17
2018-12-04T22:55:29.462Z,3.14
2018-12-04T22:57:58.546Z,3.13
2018-12-04T23:00:39.128Z,3.13
2018-12-04T23:03:10.076Z,3.06
2018-12-04T23:05:39.566Z,3.15
2018-12-04T23:08:08.583Z,3.07
2018-12-04T23:10:37.649Z,3.06
2018-12-04T23:13:07.263Z,3.06
2018-12-04T23:15:36.335Z,3.07
2018-12-04T23:18:05.674Z,2.98
2018-12-04T23:20:35.011Z,3.03
2018-12-04T23:23:04.393Z,3.01
2018-12-04T23:25:34.111Z,3.08
2018-12-04T23:28:03.190Z,3.03
2018-12-04T23:30:32.257Z,2.98
2018-12-04T23:33:01.319Z,2.97
2018-12-04T23:35:30.458Z,2.88
2018-12-04T23:37:59.526Z,2.91
2018-12-04T23:40:28.662Z,2.89
2018-12-04T23:42:58.043Z,2.93
2018-12-04T23:45:27.122Z,2.90
2018-12-04T23:47:56.210Z,2.89
2018-12-04T23:50:25.594Z,2.95
2018-12-04T23:52:54.921Z,2.89
2018-12-04T23:55:24.030Z,2.09
2018-12-04T23:57:53.435Z,2.80
